Time;durP1;ratioP1;P1;durP2;ratioP2;P2;SDS_P1;SDS_P2;PMS_P1;PMS_P2;Temp;Humidity;BMP_temperature;BMP_pressure;BME280_temperature;BME280_humidity;BME280_pressure;Samples;Min_cycle;Max_cycle;Signal;HPM_P1;HPM_P2
2022/04/04 00:02:18;;;;;;;12.50;7.37;;;;;;;-1.57;100.00;99392.77;1743075;82;21038;-68
2022/04/04 00:04:44;;;;;;;10.55;6.58;;;;;;;-1.59;100.00;99395.33;1742826;81;21006;-69
2022/04/04 00:07:11;;;;;;;10.28;6.50;;;;;;;-1.62;100.00;99400.50;1742683;82;21046;-68
2022/04/04 00:09:38;;;;;;;14.18;6.60;;;;;;;-1.63;100.00;99406.55;1742881;81;21130;-69
2022/04/04 00:12:06;;;;;;;11.38;6.50;;;;;;;-1.63;100.00;99400.09;1742802;81;21082;-68
2022/04/04 00:14:33;;;;;;;11.53;7.30;;;;;;;-1.66;100.00;99397.92;1742747;81;21002;-68
2022/04/04 00:17:01;;;;;;;12.85;7.00;;;;;;;-1.68;100.00;99413.41;1743002;81;21019;-68
2022/04/04 00:19:29;;;;;;;13.95;7.85;;;;;;;-1.71;100.00;99410.83;1742879;81;20999;-70
2022/04/04 00:21:56;;;;;;;16.52;8.40;;;;;;;-1.75;100.00;99416.84;1742757;82;21979;-69
2022/04/04 00:24:24;;;;;;;11.28;6.87;;;;;;;-1.77;100.00;99415.97;1742868;82;21085;-69
2022/04/04 00:26:52;;;;;;;12.95;7.70;;;;;;;-1.79;100.00;99424.17;1742640;81;21149;-69
2022/04/04 00:29:19;;;;;;;12.55;7.03;;;;;;;-1.83;100.00;99424.58;1742800;82;21035;-69
2022/04/04 00:31:46;;;;;;;12.63;7.42;;;;;;;-1.85;100.00;99422.86;1742821;82;21089;-68
2022/04/04 00:34:14;;;;;;;11.65;7.37;;;;;;;-1.87;100.00;99427.16;1742717;81;21050;-69
2022/04/04 00:36:43;;;;;;;11.45;7.12;;;;;;;-1.88;100.00;99430.61;1742706;81;21523;-69
2022/04/04 00:39:11;;;;;;;12.13;7.20;;;;;;;-1.92;100.00;99433.16;1742884;81;21004;-68
2022/04/04 00:41:38;;;;;;;16.90;7.83;;;;;;;-1.94;100.00;99428.42;1757365;81;21539;-69
2022/04/04 00:44:05;;;;;;;11.18;7.12;;;;;;;-1.96;100.00;99439.16;1763285;81;21532;-70
2022/04/04 00:46:31;;;;;;;13.30;6.97;;;;;;;-1.97;100.00;99436.61;1763420;81;21208;-68
2022/04/04 00:48:58;;;;;;;13.83;7.42;;;;;;;-2.00;100.00;99439.16;1763325;81;21046;-69
2022/04/04 00:51:25;;;;;;;12.35;7.85;;;;;;;-2.01;100.00;99438.30;1745533;81;21104;-69
2022/04/04 00:53:52;;;;;;;13.35;6.40;;;;;;;-2.03;100.00;99442.59;1742793;82;21050;-69
2022/04/04 00:56:18;;;;;;;10.10;7.12;;;;;;;-2.07;100.00;99438.30;1742853;81;21045;-69
2022/04/04 00:58:45;;;;;;;11.75;6.65;;;;;;;-2.08;100.00;99446.88;1742676;82;21258;-69
2022/04/04 01:01:12;;;;;;;11.90;7.78;;;;;;;-2.10;100.00;99448.59;1742858;81;21015;-69
2022/04/04 01:03:39;;;;;;;12.05;7.08;;;;;;;-2.13;100.00;99449.45;1742550;81;21027;-68
2022/04/04 01:06:06;;;;;;;13.70;7.40;;;;;;;-2.14;100.00;99454.59;1742694;82;21061;-68
2022/04/04 01:08:36;;;;;;;13.20;7.25;;;;;;;-2.17;100.00;99453.30;1742852;82;20991;-69
2022/04/04 01:11:03;;;;;;;13.30;7.30;;;;;;;-2.19;100.00;99456.30;1686276;82;21815;-68
2022/04/04 01:13:30;;;;;;;15.55;8.03;;;;;;;-2.20;100.00;99454.59;1742740;81;21069;-69
2022/04/04 01:15:57;;;;;;;14.38;8.08;;;;;;;-2.20;100.00;99457.17;1742848;81;21053;-68
2022/04/04 01:18:25;;;;;;;14.63;8.53;;;;;;;-2.22;100.00;99460.17;1742799;82;21006;-68
2022/04/04 01:20:54;;;;;;;13.43;7.15;;;;;;;-2.25;100.00;99458.88;1742808;81;22131;-70
2022/04/04 01:23:24;;;;;;;15.03;8.08;;;;;;;-2.27;100.00;99455.43;1742967;82;21449;-69
2022/04/04 01:25:51;;;;;;;13.45;7.83;;;;;;;-2.29;100.00;99462.30;1742900;82;21529;-69
2022/04/04 01:28:19;;;;;;;12.55;7.80;;;;;;;-2.32;100.00;99462.71;1742567;80;22162;-70
2022/04/04 01:30:51;;;;;;;12.37;7.87;;;;;;;-2.34;100.00;99461.84;1742842;82;21073;-68
2022/04/04 01:33:18;;;;;;;11.05;7.05;;;;;;;-2.37;100.00;99462.24;1742880;81;21019;-69
2022/04/04 01:35:45;;;;;;;12.05;7.15;;;;;;;-2.40;100.00;99463.09;1742834;81;21625;-69
2022/04/04 01:38:12;;;;;;;15.93;7.97;;;;;;;-2.44;100.00;99466.53;1742578;82;21499;-69
2022/04/04 01:41:28;;;;;;;11.50;7.60;;;;;;;-2.50;100.00;99463.92;1795663;79;22680;-68
2022/04/04 01:43:55;;;;;;;15.75;7.75;;;;;;;-2.57;100.00;99471.19;1756481;80;21020;-69
2022/04/04 01:46:24;;;;;;;12.95;7.85;;;;;;;-2.59;100.00;99456.13;1756287;81;21175;-69
2022/04/04 01:48:54;;;;;;;15.88;9.63;;;;;;;-2.62;100.00;99465.16;1756209;81;20969;-67
2022/04/04 01:51:21;;;;;;;15.88;8.68;;;;;;;-2.67;100.00;99460.37;1756049;81;21055;-69
2022/04/04 01:53:49;;;;;;;16.77;9.10;;;;;;;-2.69;100.00;99472.38;1756694;81;22218;-68
2022/04/04 01:56:16;;;;;;;15.65;8.85;;;;;;;-2.74;100.00;99473.65;1756194;81;21554;-69
2022/04/04 01:58:44;;;;;;;17.12;8.88;;;;;;;-2.80;100.00;99466.75;1756322;81;21130;-69
2022/04/04 02:01:18;;;;;;;19.67;8.43;;;;;;;-2.82;100.00;99474.90;1756240;81;21028;-68
2022/04/04 02:03:48;;;;;;;21.48;10.08;;;;;;;-2.87;100.00;99476.59;1756564;81;21094;-68
2022/04/04 02:06:14;;;;;;;17.10;10.00;;;;;;;-2.92;100.00;99474.42;1756182;81;21619;-68
2022/04/04 02:08:42;;;;;;;29.92;12.50;;;;;;;-2.97;100.00;99478.65;1756137;81;21564;-69
2022/04/04 02:11:11;;;;;;;22.70;10.15;;;;;;;-3.01;100.00;99484.66;1756212;81;21289;-69
2022/04/04 02:13:38;;;;;;;28.45;11.65;;;;;;;-3.07;100.00;99486.74;1756381;81;21042;-69
2022/04/04 02:16:06;;;;;;;27.93;13.50;;;;;;;-3.07;100.00;99493.61;1756033;81;21163;-69
2022/04/04 02:18:34;;;;;;;39.50;14.33;;;;;;;-3.10;100.00;99488.45;1756191;81;21007;-68
2022/04/04 02:21:02;;;;;;;50.35;16.82;;;;;;;-3.12;100.00;99487.57;1728337;81;21137;-68
2022/04/04 02:23:29;;;;;;;39.08;17.27;;;;;;;-3.17;100.00;99484.53;1726420;83;21128;-68
2022/04/04 02:25:56;;;;;;;39.08;14.70;;;;;;;-3.17;100.00;99484.96;1725966;82;21067;-69
2022/04/04 02:28:23;;;;;;;37.60;15.03;;;;;;;-3.20;100.00;99492.23;1726207;82;21070;-68
2022/04/04 02:30:52;;;;;;;38.73;15.00;;;;;;;-3.21;100.00;99498.66;1726051;82;21094;-68
2022/04/04 02:33:19;;;;;;;38.40;14.03;;;;;;;-3.23;100.00;99498.63;1726232;82;21095;-68
2022/04/04 02:35:47;;;;;;;30.72;13.48;;;;;;;-3.23;100.00;99509.37;1726088;82;21215;-68
2022/04/04 02:38:15;;;;;;;28.95;13.18;;;;;;;-3.25;100.00;99514.49;1726301;82;21032;-67
2022/04/04 02:40:41;;;;;;;30.70;13.28;;;;;;;-3.28;100.00;99520.91;1723252;82;21102;-69
2022/04/04 02:43:09;;;;;;;27.98;12.85;;;;;;;-3.30;100.00;99521.75;1721430;83;21094;-67
2022/04/04 02:45:36;;;;;;;37.50;13.28;;;;;;;-3.31;100.00;99522.58;1721366;83;21386;-68
2022/04/04 02:48:05;;;;;;;28.67;12.20;;;;;;;-3.34;100.00;99522.13;1721381;83;21870;-69
2022/04/04 02:50:34;;;;;;;31.70;13.53;;;;;;;-3.34;100.00;99531.14;1721590;83;22130;-69
2022/04/04 02:53:02;;;;;;;28.83;11.33;;;;;;;-3.34;100.00;99531.14;1720909;83;21105;-69
2022/04/04 02:58:15;;;;;;;23.65;10.40;;;;;;;-3.35;100.00;99529.87;1720790;83;21061;-68
2022/04/04 03:00:42;;;;;;;23.50;11.40;;;;;;;-3.35;100.00;99536.30;1720734;83;21093;-68
2022/04/04 03:03:09;;;;;;;32.28;13.78;;;;;;;-3.38;100.00;99535.86;1720664;83;21061;-70
2022/04/04 03:05:36;;;;;;;23.57;11.70;;;;;;;-3.39;100.00;99537.97;1720556;83;21002;-70
2022/04/04 03:08:05;;;;;;;32.75;11.80;;;;;;;-3.40;100.00;99538.83;1720563;83;22191;-68
2022/04/04 03:10:35;;;;;;;18.40;10.82;;;;;;;-3.42;100.00;99536.66;1720896;83;21054;-69
2022/04/04 03:13:05;;;;;;;29.27;11.93;;;;;;;-3.43;100.00;99546.50;1720870;83;21577;-69
2022/04/04 03:15:34;;;;;;;26.33;12.50;;;;;;;-3.46;100.00;99545.20;1720853;83;21070;-69
2022/04/04 03:18:01;;;;;;;21.80;10.38;;;;;;;-3.47;100.00;99558.93;1720664;83;21025;-68
2022/04/04 03:20:28;;;;;;;29.30;12.00;;;;;;;-3.50;100.00;99555.88;1720732;83;21053;-69
2022/04/04 03:22:57;;;;;;;25.12;11.65;;;;;;;-3.51;100.00;99567.03;1720660;83;21041;-69
2022/04/04 03:25:25;;;;;;;25.23;11.18;;;;;;;-3.51;100.00;99563.60;1721032;83;21926;-67
2022/04/04 03:27:53;;;;;;;29.23;11.33;;;;;;;-3.52;100.00;99569.18;1720668;83;21254;-68
2022/04/04 03:30:24;;;;;;;25.82;11.45;;;;;;;-3.55;100.00;99572.13;1720781;83;21018;-68
2022/04/04 03:32:52;;;;;;;20.08;9.60;;;;;;;-3.57;100.00;99571.25;1721006;83;21049;-69
2022/04/04 03:35:19;;;;;;;22.37;10.67;;;;;;;-3.62;100.00;99576.34;1720932;83;21048;-69
2022/04/04 03:37:48;;;;;;;23.25;11.55;;;;;;;-3.65;100.00;99575.89;1720756;83;21233;-68
2022/04/04 03:40:16;;;;;;;25.82;12.05;;;;;;;-3.66;100.00;99578.44;1721696;83;21073;-68
2022/04/04 03:42:45;;;;;;;20.27;10.85;;;;;;;-3.67;100.00;99586.59;1726269;82;21076;-69
2022/04/04 03:45:12;;;;;;;24.27;11.65;;;;;;;-3.68;100.00;99587.45;1726048;82;20997;-68
2022/04/04 03:47:42;;;;;;;24.27;11.50;;;;;;;-3.68;100.00;99595.17;1726025;82;21084;-69
2022/04/04 03:50:12;;;;;;;25.02;11.83;;;;;;;-3.70;100.00;99589.14;1714602;83;21124;-68
2022/04/04 03:52:41;;;;;;;22.50;11.63;;;;;;;-3.69;100.00;99593.42;1691785;84;21051;-69
2022/04/04 03:55:09;;;;;;;28.13;12.67;;;;;;;-3.70;100.00;99596.86;1691435;83;21014;-69
2022/04/04 03:57:36;;;;;;;28.60;12.95;;;;;;;-3.68;100.00;99600.31;1691661;84;21115;-69
2022/04/04 04:00:05;;;;;;;24.70;12.97;;;;;;;-3.69;100.00;99601.14;1691469;84;21093;-70
2022/04/04 04:02:33;;;;;;;22.77;11.23;;;;;;;-3.67;100.00;99605.03;1691804;84;21273;-69
2022/04/04 04:05:01;;;;;;;24.70;12.25;;;;;;;-3.66;100.00;99607.63;1691544;84;21074;-69
2022/04/04 04:07:29;;;;;;;27.33;13.00;;;;;;;-3.60;100.00;99611.55;1691366;84;21088;-71
2022/04/04 04:09:55;;;;;;;29.37;12.75;;;;;;;-3.50;100.00;99611.65;1691477;84;21065;-68
2022/04/04 04:12:22;;;;;;;30.45;13.08;;;;;;;-3.38;100.00;99612.66;1691451;84;21073;-69
2022/04/04 04:14:52;;;;;;;34.45;14.53;;;;;;;-3.21;100.00;99619.27;1691603;84;21951;-71
2022/04/04 04:17:21;;;;;;;27.93;13.15;;;;;;;-2.95;100.00;99623.81;1691648;84;21061;-69
2022/04/04 04:22:34;;;;;;;35.63;14.38;;;;;;;-2.15;100.00;99620.58;1691471;84;21056;-69
2022/04/04 04:25:03;;;;;;;33.02;14.03;;;;;;;-1.87;100.00;99624.59;1691409;84;21096;-69
2022/04/04 04:27:29;;;;;;;35.13;14.07;;;;;;;-1.75;100.00;99625.94;1691590;84;21143;-70
2022/04/04 04:29:56;;;;;;;30.30;13.75;;;;;;;-1.51;100.00;99623.47;1691420;84;21582;-68
2022/04/04 04:32:24;;;;;;;27.50;13.18;;;;;;;-1.43;100.00;99626.50;1691533;84;21616;-69
2022/04/04 04:34:52;;;;;;;36.42;13.93;;;;;;;-1.44;100.00;99640.29;1691572;84;21092;-70
2022/04/04 04:37:21;;;;;;;31.27;14.43;;;;;;;-1.45;100.00;99639.84;1691501;84;21060;-69
2022/04/04 04:39:49;;;;;;;25.90;12.25;;;;;;;-1.49;100.00;99638.98;1691665;84;21784;-70
2022/04/04 04:42:16;;;;;;;31.50;14.87;;;;;;;-1.43;100.00;99643.29;1679698;84;21076;-68
2022/04/04 04:44:45;;;;;;;35.00;12.95;;;;;;;-0.83;100.00;99635.25;1678500;85;21605;-69
2022/04/04 04:47:11;;;;;;;27.60;13.22;;;;;;;0.02;100.00;99642.54;1678557;85;21137;-69
2022/04/04 04:49:40;;;;;;;35.23;13.65;;;;;;;0.88;100.00;99643.53;1683442;83;21120;-70
2022/04/04 04:52:07;;;;;;;32.70;12.93;;;;;;;1.76;100.00;99650.24;1712852;83;21260;-70
2022/04/04 04:54:33;;;;;;;35.95;12.78;;;;;;;2.52;100.00;99651.63;1712803;83;21022;-69
2022/04/04 04:57:00;;;;;;;32.10;12.47;;;;;;;3.22;97.13;99659.36;1712919;82;21026;-70
2022/04/04 04:59:26;;;;;;;32.50;13.28;;;;;;;3.90;93.73;99657.86;1712960;82;21110;-69
2022/04/04 05:01:54;;;;;;;32.17;12.53;;;;;;;4.44;86.54;99657.73;1712867;82;21062;-71
2022/04/04 05:04:21;;;;;;;35.03;13.93;;;;;;;4.93;84.43;99663.70;1712991;83;21269;-69
2022/04/04 05:06:49;;;;;;;30.50;12.28;;;;;;;5.47;82.46;99672.47;1713183;83;21089;-69
2022/04/04 05:09:17;;;;;;;35.00;13.22;;;;;;;5.90;77.40;99666.20;1713057;83;21042;-70
2022/04/04 05:11:45;;;;;;;30.75;12.65;;;;;;;6.14;73.75;99671.27;1713167;83;21109;-70
2022/04/04 05:14:17;;;;;;;31.52;12.90;;;;;;;6.22;74.12;99675.86;1712982;83;21612;-70
2022/04/04 05:16:45;;;;;;;27.10;13.08;;;;;;;6.43;74.09;99674.42;1713070;83;22074;-70
2022/04/04 05:19:13;;;;;;;29.52;12.05;;;;;;;6.84;71.36;99684.19;1712943;82;21510;-71
2022/04/04 05:21:41;;;;;;;31.37;12.45;;;;;;;7.29;70.25;99683.73;1713118;83;21117;-69
2022/04/04 05:24:09;;;;;;;28.02;11.95;;;;;;;7.53;65.94;99686.48;1712982;83;21081;-70
2022/04/04 05:26:36;;;;;;;22.07;11.57;;;;;;;7.74;64.67;99691.03;1713148;83;22257;-70
2022/04/04 05:29:04;;;;;;;26.87;11.78;;;;;;;8.00;64.18;99689.31;1713042;83;22269;-71
2022/04/04 05:31:33;;;;;;;32.28;10.60;;;;;;;8.30;62.68;99689.18;1713151;83;21159;-71
2022/04/04 05:34:04;;;;;;;29.42;11.08;;;;;;;8.61;61.99;99689.84;1712991;82;21077;-71
2022/04/04 05:36:31;;;;;;;25.52;9.80;;;;;;;8.94;60.70;99692.14;1713287;83;22159;-71
2022/04/04 05:38:58;;;;;;;21.90;10.08;;;;;;;9.15;59.47;99690.47;1678447;85;21073;-71
2022/04/04 05:41:27;;;;;;;20.62;10.23;;;;;;;9.14;57.01;99698.44;1718561;83;21246;-70
2022/04/04 05:43:55;;;;;;;27.55;10.70;;;;;;;9.22;57.53;99698.55;1725872;83;21057;-69
2022/04/04 05:46:21;;;;;;;24.25;10.60;;;;;;;9.32;57.32;99702.14;1725973;83;21045;-69
2022/04/04 05:48:48;;;;;;;25.50;10.05;;;;;;;9.53;57.92;99707.01;1725967;83;21017;-69
2022/04/04 05:51:17;;;;;;;24.70;10.90;;;;;;;9.88;55.70;99699.86;1726027;82;21074;-70
2022/04/04 05:53:44;;;;;;;27.52;12.05;;;;;;;10.07;54.05;99703.04;1725781;82;21120;-71
2022/04/04 05:56:11;;;;;;;20.70;9.75;;;;;;;10.36;52.92;99703.16;1725867;83;21012;-71
2022/04/04 05:58:40;;;;;;;17.62;9.05;;;;;;;10.71;51.63;99706.03;1725780;82;21031;-71
2022/04/04 06:01:12;;;;;;;24.45;11.00;;;;;;;10.71;48.75;99713.94;1725605;82;20994;-71
2022/04/04 06:03:36;;;;;;;27.95;10.48;;;;;;;10.81;49.00;99717.89;1724633;82;22401;-70
2022/04/04 06:06:04;;;;;;;18.95;9.55;;;;;;;11.02;48.29;99709.91;1725807;83;21311;-72
2022/04/04 06:08:31;;;;;;;22.00;9.23;;;;;;;11.29;48.14;99710.43;1725771;82;21104;-72
2022/04/04 06:10:57;;;;;;;16.80;8.28;;;;;;;11.59;47.80;99714.72;1725912;82;21060;-70
2022/04/04 06:13:24;;;;;;;13.60;7.40;;;;;;;11.65;44.97;99714.91;1709514;83;21065;-69
2022/04/04 06:15:51;;;;;;;14.20;7.75;;;;;;;11.67;45.06;99720.97;1725782;83;21080;-71
2022/04/04 06:18:17;;;;;;;14.20;7.12;;;;;;;11.65;44.29;99721.50;1725944;83;21174;-71
2022/04/04 06:20:44;;;;;;;15.68;7.50;;;;;;;11.55;44.29;99719.77;1725833;81;21053;-71
2022/04/04 06:23:12;;;;;;;14.40;7.33;;;;;;;11.51;44.92;99719.05;1725447;82;21045;-72
2022/04/04 06:25:41;;;;;;;13.98;7.95;;;;;;;11.55;44.49;99721.09;1725661;82;21029;-71
2022/04/04 06:28:09;;;;;;;13.88;7.35;;;;;;;11.52;42.23;99720.74;1725968;82;21363;-70
2022/04/04 06:30:35;;;;;;;18.20;6.75;;;;;;;11.27;43.69;99720.19;1726017;83;21251;-71
2022/04/04 06:33:06;;;;;;;14.75;7.03;;;;;;;11.23;43.66;99723.91;1726101;83;21088;-70
2022/04/04 06:35:34;;;;;;;14.68;7.33;;;;;;;11.36;42.44;99735.58;1726026;82;21509;-72
2022/04/04 06:38:01;;;;;;;12.95;6.90;;;;;;;11.31;45.44;99738.89;1725966;82;21591;-71
2022/04/04 06:40:30;;;;;;;13.32;8.00;;;;;;;11.54;43.78;99743.94;1726264;83;21529;-70
2022/04/04 06:42:58;;;;;;;13.15;7.37;;;;;;;11.83;43.96;99746.99;1714558;82;21972;-71
2022/04/04 06:45:25;;;;;;;12.05;7.33;;;;;;;11.91;42.40;99746.17;1713242;82;21547;-71
2022/04/04 06:47:52;;;;;;;12.98;7.60;;;;;;;12.22;43.06;99746.47;1713320;82;21046;-70
2022/04/04 06:50:18;;;;;;;10.65;6.60;;;;;;;12.60;44.63;99739.23;1713080;83;21075;-71
2022/04/04 06:52:46;;;;;;;10.63;6.50;;;;;;;12.99;42.43;99746.00;1713206;83;21084;-71
2022/04/04 06:55:15;;;;;;;11.78;6.28;;;;;;;13.21;39.92;99747.05;1712959;83;21317;-70
2022/04/04 06:57:42;;;;;;;9.68;6.17;;;;;;;13.35;40.77;99743.20;1713167;82;21008;-70
2022/04/04 07:00:12;;;;;;;14.18;6.67;;;;;;;13.59;40.74;99744.95;1712848;83;21095;-70
2022/04/04 07:02:39;;;;;;;11.12;6.65;;;;;;;13.71;41.19;99751.83;1713175;82;21716;-70
2022/04/04 07:05:08;;;;;;;13.60;6.80;;;;;;;13.83;39.66;99750.69;1712937;82;21581;-70
2022/04/04 07:07:35;;;;;;;11.12;6.20;;;;;;;13.89;39.17;99755.23;1713097;82;21130;-69
2022/04/04 07:10:05;;;;;;;10.50;6.40;;;;;;;13.92;39.33;99758.58;1713286;82;21056;-70
2022/04/04 07:12:33;;;;;;;10.70;6.28;;;;;;;13.61;37.40;99757.63;1712937;83;21036;-71
2022/04/04 07:15:02;;;;;;;9.38;6.55;;;;;;;13.03;37.83;99756.81;1712908;82;21572;-71
2022/04/04 07:17:29;;;;;;;13.62;7.05;;;;;;;12.88;39.56;99756.28;1713135;83;21076;-71
2022/04/04 07:19:57;;;;;;;9.60;5.62;;;;;;;12.97;38.21;99759.77;1712836;82;21075;-70
2022/04/04 07:22:25;;;;;;;9.25;6.10;;;;;;;13.28;39.83;99767.44;1712997;82;21049;-72
2022/04/04 07:24:53;;;;;;;9.55;5.70;;;;;;;13.46;37.31;99767.76;1712970;82;21052;-72
2022/04/04 07:27:20;;;;;;;10.63;6.72;;;;;;;13.37;34.36;99766.94;1713124;83;21497;-70
2022/04/04 07:29:47;;;;;;;8.75;5.90;;;;;;;13.30;35.48;99770.38;1712648;83;21130;-69
2022/04/04 07:32:13;;;;;;;8.75;5.80;;;;;;;13.29;35.60;99773.09;1713037;82;21232;-71
2022/04/04 07:34:40;;;;;;;11.22;6.28;;;;;;;13.26;35.71;99781.17;1712399;82;21185;-70
2022/04/04 07:37:07;;;;;;;10.10;6.33;;;;;;;13.08;35.57;99781.20;1712516;83;21122;-70
2022/04/04 07:39:34;;;;;;;8.23;5.50;;;;;;;13.26;35.89;99780.70;1712695;83;21084;-70
2022/04/04 07:42:04;;;;;;;9.48;5.83;;;;;;;13.63;35.42;99774.28;1715709;82;21102;-70
2022/04/04 07:44:30;;;;;;;8.53;5.30;;;;;;;13.88;35.24;99776.89;1720355;82;22171;-70
2022/04/04 07:47:00;;;;;;;12.78;5.92;;;;;;;14.06;33.73;99785.59;1720542;83;21551;-70
2022/04/04 07:49:26;;;;;;;9.25;6.10;;;;;;;14.34;34.38;99783.53;1719346;83;21067;-70
2022/04/04 07:51:53;;;;;;;7.78;5.45;;;;;;;14.58;32.29;99779.09;1691438;84;21582;-71
2022/04/04 07:54:20;;;;;;;9.13;5.42;;;;;;;14.62;33.50;99787.24;1691803;84;21086;-69
2022/04/04 07:56:47;;;;;;;10.98;5.72;;;;;;;14.82;31.40;99782.94;1691689;84;21869;-69
2022/04/04 07:59:15;;;;;;;8.93;5.40;;;;;;;15.06;30.98;99782.38;1691627;84;21051;-69
2022/04/04 08:01:42;;;;;;;11.63;6.05;;;;;;;15.12;30.75;99783.34;1691794;83;21107;-70
2022/04/04 08:04:10;;;;;;;8.15;5.40;;;;;;;15.21;29.80;99787.23;1691791;84;21072;-69
2022/04/04 08:06:40;;;;;;;8.23;5.20;;;;;;;15.42;30.79;99785.05;1691970;84;21052;-71
2022/04/04 08:09:07;;;;;;;8.33;4.80;;;;;;;15.56;29.06;99779.72;1691846;84;21125;-69
2022/04/04 08:11:37;;;;;;;9.25;5.15;;;;;;;15.68;28.45;99778.93;1691945;84;21539;-70
2022/04/04 08:14:09;;;;;;;9.63;5.72;;;;;;;15.45;27.70;99781.71;1691820;84;21131;-70
2022/04/04 08:16:39;;;;;;;9.63;5.50;;;;;;;14.88;29.67;99786.55;1691785;84;21559;-70
2022/04/04 08:19:08;;;;;;;9.10;5.45;;;;;;;14.78;27.21;99790.68;1692083;84;21067;-70
2022/04/04 08:21:35;;;;;;;10.78;5.12;;;;;;;14.55;28.05;99788.55;1691659;83;21303;-70
2022/04/04 08:24:03;;;;;;;12.40;5.35;;;;;;;14.23;28.53;99767.41;1691649;83;21008;-69
2022/04/04 08:26:30;;;;;;;12.60;6.20;;;;;;;13.80;28.29;99784.39;1692137;84;21058;-70
2022/04/04 08:28:57;;;;;;;11.57;5.47;;;;;;;13.70;29.61;99780.09;1691597;83;21050;-71
2022/04/04 08:31:27;;;;;;;10.88;5.30;;;;;;;13.79;30.39;99780.05;1691769;84;21020;-70
2022/04/04 08:33:55;;;;;;;8.90;4.58;;;;;;;14.14;29.20;99783.82;1691916;84;21875;-71
2022/04/04 08:36:22;;;;;;;9.20;4.90;;;;;;;14.55;25.52;99785.42;1691728;83;21141;-71
2022/04/04 08:38:50;;;;;;;9.88;4.67;;;;;;;14.60;26.50;99782.50;1691481;84;21067;-70
2022/04/04 08:41:17;;;;;;;7.50;4.83;;;;;;;14.87;26.19;99776.88;1691626;84;21512;-70
2022/04/04 08:43:47;;;;;;;10.65;4.83;;;;;;;15.11;26.15;99771.02;1724157;82;21144;-70
2022/04/04 08:46:15;;;;;;;7.75;4.22;;;;;;;15.27;24.64;99770.44;1709594;83;21069;-70
2022/04/04 08:48:43;;;;;;;11.20;4.53;;;;;;;15.34;23.98;99772.24;1725430;82;21081;-72
2022/04/04 08:51:10;;;;;;;12.07;5.10;;;;;;;15.30;23.05;99771.59;1699204;82;21676;-71
2022/04/04 08:53:39;;;;;;;11.20;4.60;;;;;;;14.93;22.73;99778.32;1688350;84;21096;-70
2022/04/04 08:56:09;;;;;;;10.85;5.22;;;;;;;14.53;22.40;99790.41;1690474;84;21152;-70
2022/04/04 08:58:36;;;;;;;10.90;4.80;;;;;;;14.09;22.40;99779.27;1690523;84;21359;-70
2022/04/04 09:01:03;;;;;;;11.35;5.03;;;;;;;13.98;24.11;99775.42;1705649;83;21525;-70
2022/04/04 09:03:31;;;;;;;15.50;6.00;;;;;;;13.86;25.54;99768.18;1725769;83;21053;-71
2022/04/04 09:06:00;;;;;;;13.05;6.17;;;;;;;13.85;26.55;99768.66;1725651;83;21127;-69
2022/04/04 09:08:28;;;;;;;10.27;5.17;;;;;;;13.71;25.98;99769.91;1726188;82;21709;-70
2022/04/04 09:11:00;;;;;;;10.75;4.67;;;;;;;13.83;26.06;99771.02;1725716;82;21279;-71
2022/04/04 09:13:28;;;;;;;8.83;4.85;;;;;;;13.85;24.25;99763.36;1690815;84;21541;-71
2022/04/04 09:16:02;;;;;;;10.18;4.70;;;;;;;13.74;24.71;99779.47;1691072;84;21060;-69
2022/04/04 09:18:42;;;;;;;10.78;3.92;;;;;;;13.81;25.64;99776.86;1690933;83;21671;-70
2022/04/04 09:21:15;;;;;;;9.30;4.75;;;;;;;13.86;24.45;99764.21;1690976;84;21108;-70
2022/04/04 09:23:51;;;;;;;7.70;4.03;;;;;;;13.42;24.39;99774.15;1689094;84;21762;-70
2022/04/04 09:26:42;;;;;;;10.23;3.70;;;;;;;13.36;23.99;99779.28;1690906;84;21080;-71
2022/04/04 09:29:14;;;;;;;;;;;;;;;13.51;23.57;99777.61;1667945;84;21088;-71
2022/04/04 09:32:05;;;;;;;8.85;4.00;;;;;;;13.64;23.76;99773.36;1643342;85;20185;-70
2022/04/04 09:34:30;;;;;;;8.13;3.62;;;;;;;13.77;24.36;99777.96;1641373;87;21059;-70
2022/04/04 09:36:58;;;;;;;6.28;3.60;;;;;;;13.64;22.26;99769.39;1641399;87;22149;-71
2022/04/04 09:39:26;;;;;;;7.15;3.72;;;;;;;13.33;25.03;99773.33;1641214;87;21136;-71
2022/04/04 09:41:53;;;;;;;8.50;4.28;;;;;;;13.32;24.31;99771.59;1640962;86;21587;-71
2022/04/04 09:44:25;;;;;;;5.90;4.20;;;;;;;13.13;24.52;99771.70;1587335;87;22154;-71
2022/04/04 09:46:50;;;;;;;8.63;4.08;;;;;;;12.77;24.99;99769.61;1643136;87;22168;-71
2022/04/04 09:49:20;;;;;;;11.22;4.62;;;;;;;12.77;25.44;99773.56;1633861;87;21124;-71
2022/04/04 09:51:55;;;;;;;8.05;4.75;;;;;;;12.96;26.75;99771.28;1611881;87;21085;-70
2022/04/04 09:54:30;;;;;;;9.75;4.30;;;;;;;13.13;26.16;99757.16;1652560;86;21249;-71
2022/04/04 09:57:15;;;;;;;6.92;3.77;;;;;;;13.10;25.53;99759.51;1652491;86;21625;-70
2022/04/04 09:59:42;;;;;;;9.30;4.62;;;;;;;13.33;25.07;99760.10;1652554;85;21076;-70
2022/04/04 10:02:13;;;;;;;8.95;4.87;;;;;;;13.52;26.21;99767.88;1652429;86;21101;-70
2022/04/04 10:04:39;;;;;;;11.75;4.47;;;;;;;13.83;26.79;99769.69;1652518;86;21133;-71
2022/04/04 10:07:09;;;;;;;8.23;4.72;;;;;;;14.13;25.68;99766.24;1626108;86;21105;-70
2022/04/04 10:09:36;;;;;;;;;;;;;;;14.20;26.42;99759.64;1655213;85;21121;-70
2022/04/04 10:12:05;;;;;;;7.72;3.65;;;;;;;14.14;25.76;99770.11;1652643;86;20192;-71
2022/04/04 10:14:32;;;;;;;11.28;3.80;;;;;;;13.94;25.28;99769.94;1652619;86;21214;-70
2022/04/04 10:17:00;;;;;;;10.50;3.90;;;;;;;13.42;26.64;99766.21;1652629;86;21018;-71
2022/04/04 10:19:28;;;;;;;10.35;3.80;;;;;;;13.07;27.03;99768.94;1652663;85;21082;-70
2022/04/04 10:21:55;;;;;;;6.95;4.08;;;;;;;12.73;27.29;99769.37;1652613;86;21081;-70
2022/04/04 10:24:23;;;;;;;7.55;3.77;;;;;;;12.19;27.90;99768.57;1652583;86;21049;-71
2022/04/04 10:26:50;;;;;;;8.95;4.10;;;;;;;11.86;28.78;99769.27;1652646;86;21127;-70
2022/04/04 10:29:19;;;;;;;6.37;3.62;;;;;;;11.67;28.91;99763.16;1652675;86;21526;-70
2022/04/04 10:31:51;;;;;;;7.28;4.03;;;;;;;11.33;29.24;99770.00;1652514;86;21125;-70
2022/04/04 10:34:20;;;;;;;8.45;4.03;;;;;;;10.96;30.41;99776.08;1652626;86;22193;-70
2022/04/04 10:37:07;;;;;;;8.38;3.90;;;;;;;10.67;30.86;99776.44;1652647;86;21122;-71
2022/04/04 10:39:44;;;;;;;7.55;4.25;;;;;;;10.48;31.26;99779.44;1652713;86;21141;-71
2022/04/04 10:42:33;;;;;;;7.85;4.70;;;;;;;10.22;31.13;99773.45;1653966;83;21573;-71
2022/04/04 10:45:10;;;;;;;8.10;3.85;;;;;;;10.00;31.77;99779.19;1704573;84;21100;-70
2022/04/04 10:47:42;;;;;;;6.15;3.80;;;;;;;9.60;30.59;99775.52;1696827;84;21104;-72
2022/04/04 10:50:24;;;;;;;7.97;3.98;;;;;;;9.41;30.90;99764.86;1680834;84;21028;-73
2022/04/04 10:52:52;;;;;;;8.53;3.92;;;;;;;9.56;31.74;99764.25;1696716;84;21073;-70
2022/04/04 10:55:42;;;;;;;8.33;3.62;;;;;;;9.84;31.67;99765.33;1696816;84;21060;-70
2022/04/04 10:58:19;;;;;;;7.20;3.87;;;;;;;10.08;32.66;99764.81;1681417;84;21114;-70
2022/04/04 11:01:16;;;;;;;7.87;3.67;;;;;;;10.05;31.85;99778.54;1696918;84;21100;-71
2022/04/04 11:03:54;;;;;;;6.30;3.85;;;;;;;9.76;32.14;99774.00;1696978;84;21112;-70
2022/04/04 11:09:32;;;;;;;14.40;5.37;;;;;;;8.30;34.75;99770.51;1696992;84;21077;-70
2022/04/04 11:12:15;;;;;;;10.93;5.20;;;;;;;8.07;35.87;99777.36;1696908;84;21053;-71
2022/04/04 11:14:47;;;;;;;13.28;6.37;;;;;;;7.87;36.38;99774.55;1696959;84;21080;-71
2022/04/04 11:17:19;;;;;;;14.20;5.65;;;;;;;7.73;37.01;99773.20;1696937;83;21703;-70
2022/04/04 11:20:00;;;;;;;11.75;5.35;;;;;;;7.65;36.89;99773.89;1696877;83;21216;-71
2022/04/04 11:22:32;;;;;;;10.60;4.92;;;;;;;7.46;37.20;99763.57;1696787;84;21089;-71
2022/04/04 11:25:05;;;;;;;17.05;5.47;;;;;;;7.57;37.83;99769.34;1697016;84;21530;-70
2022/04/04 11:27:35;;;;;;;15.53;5.17;;;;;;;7.70;35.87;99778.53;1696746;84;21010;-70
2022/04/04 11:30:10;;;;;;;8.28;3.87;;;;;;;7.63;35.86;99777.00;1696882;84;21561;-70
2022/04/04 11:32:43;;;;;;;10.58;4.78;;;;;;;7.74;35.67;99781.47;1696815;84;21568;-71
2022/04/04 11:35:22;;;;;;;7.28;3.45;;;;;;;7.85;34.15;99773.73;1696869;84;21569;-70
2022/04/04 11:37:55;;;;;;;5.90;2.87;;;;;;;7.86;34.57;99770.19;1696722;84;21064;-70
2022/04/04 11:40:29;;;;;;;5.90;3.20;;;;;;;7.63;33.63;99767.83;1696558;84;21009;-70